sensor_id;sensor_type;location;lat;lon;timestamp;P1;durP1;ratioP1;P2;durP2;ratioP2
5795;SDS011;2924;51.458;7.046;2023-06-10T00:02:21;5.03;;;4.50;;
5795;SDS011;2924;51.458;7.046;2023-06-10T00:04:46;8.33;;;5.33;;
5795;SDS011;2924;51.458;7.046;2023-06-10T00:07:12;6.47;;;5.13;;
5795;SDS011;2924;51.458;7.046;2023-06-10T00:09:38;15.00;;;5.13;;
5795;SDS011;2924;51.458;7.046;2023-06-10T00:12:04;8.50;;;5.37;;
5795;SDS011;2924;51.458;7.046;2023-06-10T00:14:32;6.87;;;5.60;;
5795;SDS011;2924;51.458;7.046;2023-06-10T00:16:58;12.93;;;6.00;;
5795;SDS011;2924;51.458;7.046;2023-06-10T00:19:24;7.07;;;5.90;;
5795;SDS011;2924;51.458;7.046;2023-06-10T00:21:55;7.97;;;5.37;;
5795;SDS011;2924;51.458;7.046;2023-06-10T00:24:21;7.63;;;6.00;;
5795;SDS011;2924;51.458;7.046;2023-06-10T00:26:48;10.17;;;5.67;;
5795;SDS011;2924;51.458;7.046;2023-06-10T00:29:13;6.90;;;5.60;;
5795;SDS011;2924;51.458;7.046;2023-06-10T00:31:39;7.07;;;5.57;;
5795;SDS011;2924;51.458;7.046;2023-06-10T00:34:05;9.40;;;6.03;;
5795;SDS011;2924;51.458;7.046;2023-06-10T00:36:32;6.27;;;5.67;;
5795;SDS011;2924;51.458;7.046;2023-06-10T00:38:57;9.07;;;6.07;;
5795;SDS011;2924;51.458;7.046;2023-06-10T00:41:23;6.90;;;6.20;;
5795;SDS011;2924;51.458;7.046;2023-06-10T00:43:49;6.17;;;5.57;;
5795;SDS011;2924;51.458;7.046;2023-06-10T00:46:14;13.33;;;6.77;;
5795;SDS011;2924;51.458;7.046;2023-06-10T00:48:40;9.43;;;5.90;;
5795;SDS011;2924;51.458;7.046;2023-06-10T00:51:08;8.63;;;6.37;;
5795;SDS011;2924;51.458;7.046;2023-06-10T00:53:34;13.60;;;7.00;;
5795;SDS011;2924;51.458;7.046;2023-06-10T00:56:02;9.37;;;6.43;;
5795;SDS011;2924;51.458;7.046;2023-06-10T00:58:28;9.73;;;6.50;;
5795;SDS011;2924;51.458;7.046;2023-06-10T01:00:53;13.30;;;7.30;;
5795;SDS011;2924;51.458;7.046;2023-06-10T01:03:19;9.60;;;7.57;;
5795;SDS011;2924;51.458;7.046;2023-06-10T01:05:46;7.70;;;6.33;;
5795;SDS011;2924;51.458;7.046;2023-06-10T01:11:14;7.27;;;6.57;;
5795;SDS011;2924;51.458;7.046;2023-06-10T01:13:45;8.37;;;6.47;;
5795;SDS011;2924;51.458;7.046;2023-06-10T01:16:16;9.23;;;6.87;;
5795;SDS011;2924;51.458;7.046;2023-06-10T01:18:42;6.53;;;5.93;;
5795;SDS011;2924;51.458;7.046;2023-06-10T01:21:08;12.07;;;7.10;;
5795;SDS011;2924;51.458;7.046;2023-06-10T01:23:38;12.87;;;7.33;;
5795;SDS011;2924;51.458;7.046;2023-06-10T01:26:06;13.90;;;6.63;;
5795;SDS011;2924;51.458;7.046;2023-06-10T01:28:40;19.23;;;6.70;;
5795;SDS011;2924;51.458;7.046;2023-06-10T01:31:30;8.77;;;6.40;;
5795;SDS011;2924;51.458;7.046;2023-06-10T01:34:09;6.53;;;5.53;;
5795;SDS011;2924;51.458;7.046;2023-06-10T01:36:38;9.43;;;6.90;;
5795;SDS011;2924;51.458;7.046;2023-06-10T01:39:06;7.73;;;6.33;;
5795;SDS011;2924;51.458;7.046;2023-06-10T01:41:33;7.90;;;6.87;;
5795;SDS011;2924;51.458;7.046;2023-06-10T01:44:00;8.60;;;6.47;;
5795;SDS011;2924;51.458;7.046;2023-06-10T01:46:25;11.00;;;6.97;;
5795;SDS011;2924;51.458;7.046;2023-06-10T01:48:51;10.23;;;8.03;;
5795;SDS011;2924;51.458;7.046;2023-06-10T01:51:16;8.10;;;7.00;;
5795;SDS011;2924;51.458;7.046;2023-06-10T01:53:42;7.73;;;6.73;;
5795;SDS011;2924;51.458;7.046;2023-06-10T01:56:08;6.90;;;6.20;;
5795;SDS011;2924;51.458;7.046;2023-06-10T01:58:33;9.47;;;7.13;;
5795;SDS011;2924;51.458;7.046;2023-06-10T02:00:59;10.37;;;7.30;;
5795;SDS011;2924;51.458;7.046;2023-06-10T02:03:24;10.20;;;7.60;;
5795;SDS011;2924;51.458;7.046;2023-06-10T02:05:50;10.50;;;8.03;;
5795;SDS011;2924;51.458;7.046;2023-06-10T02:08:15;8.37;;;7.00;;
5795;SDS011;2924;51.458;7.046;2023-06-10T02:10:41;8.30;;;7.50;;
5795;SDS011;2924;51.458;7.046;2023-06-10T02:13:07;9.30;;;7.73;;
5795;SDS011;2924;51.458;7.046;2023-06-10T02:15:32;9.50;;;7.13;;
5795;SDS011;2924;51.458;7.046;2023-06-10T02:17:59;11.90;;;7.03;;
5795;SDS011;2924;51.458;7.046;2023-06-10T02:20:25;8.27;;;7.43;;
5795;SDS011;2924;51.458;7.046;2023-06-10T02:22:51;9.90;;;8.90;;
5795;SDS011;2924;51.458;7.046;2023-06-10T02:25:16;9.93;;;7.17;;
5795;SDS011;2924;51.458;7.046;2023-06-10T02:27:42;10.33;;;7.60;;
5795;SDS011;2924;51.458;7.046;2023-06-10T02:30:08;10.73;;;7.60;;
5795;SDS011;2924;51.458;7.046;2023-06-10T02:32:35;9.30;;;7.77;;
5795;SDS011;2924;51.458;7.046;2023-06-10T02:35:00;8.40;;;7.50;;
5795;SDS011;2924;51.458;7.046;2023-06-10T02:37:26;9.57;;;7.70;;
5795;SDS011;2924;51.458;7.046;2023-06-10T02:39:52;9.13;;;7.73;;
5795;SDS011;2924;51.458;7.046;2023-06-10T02:42:17;13.70;;;9.40;;
5795;SDS011;2924;51.458;7.046;2023-06-10T02:44:43;14.17;;;9.20;;
5795;SDS011;2924;51.458;7.046;2023-06-10T02:47:08;9.80;;;8.80;;
5795;SDS011;2924;51.458;7.046;2023-06-10T02:49:34;10.57;;;8.57;;
5795;SDS011;2924;51.458;7.046;2023-06-10T02:52:00;9.87;;;7.87;;
5795;SDS011;2924;51.458;7.046;2023-06-10T02:54:26;12.47;;;9.23;;
5795;SDS011;2924;51.458;7.046;2023-06-10T02:56:51;12.70;;;8.50;;
5795;SDS011;2924;51.458;7.046;2023-06-10T02:59:17;17.37;;;9.80;;
5795;SDS011;2924;51.458;7.046;2023-06-10T03:01:44;12.50;;;9.27;;
5795;SDS011;2924;51.458;7.046;2023-06-10T03:04:10;18.43;;;9.73;;
5795;SDS011;2924;51.458;7.046;2023-06-10T03:06:38;14.93;;;10.70;;
5795;SDS011;2924;51.458;7.046;2023-06-10T03:09:06;11.10;;;9.60;;
5795;SDS011;2924;51.458;7.046;2023-06-10T03:11:34;14.73;;;9.80;;
5795;SDS011;2924;51.458;7.046;2023-06-10T03:14:00;11.43;;;9.07;;
5795;SDS011;2924;51.458;7.046;2023-06-10T03:16:26;11.40;;;10.20;;
5795;SDS011;2924;51.458;7.046;2023-06-10T03:18:52;18.43;;;10.40;;
5795;SDS011;2924;51.458;7.046;2023-06-10T03:21:18;16.17;;;10.93;;
5795;SDS011;2924;51.458;7.046;2023-06-10T03:23:43;17.07;;;11.10;;
5795;SDS011;2924;51.458;7.046;2023-06-10T03:26:10;17.70;;;10.50;;
5795;SDS011;2924;51.458;7.046;2023-06-10T03:28:37;13.20;;;11.03;;
5795;SDS011;2924;51.458;7.046;2023-06-10T03:31:03;12.50;;;10.80;;
5795;SDS011;2924;51.458;7.046;2023-06-10T03:33:28;15.20;;;10.40;;
5795;SDS011;2924;51.458;7.046;2023-06-10T03:35:55;19.53;;;11.43;;
5795;SDS011;2924;51.458;7.046;2023-06-10T03:38:20;20.37;;;12.47;;
5795;SDS011;2924;51.458;7.046;2023-06-10T03:40:46;13.07;;;10.90;;
5795;SDS011;2924;51.458;7.046;2023-06-10T03:43:12;14.97;;;12.00;;
5795;SDS011;2924;51.458;7.046;2023-06-10T03:45:37;18.50;;;12.23;;
5795;SDS011;2924;51.458;7.046;2023-06-10T03:48:03;16.90;;;12.70;;
5795;SDS011;2924;51.458;7.046;2023-06-10T03:50:29;13.10;;;11.47;;
5795;SDS011;2924;51.458;7.046;2023-06-10T03:52:55;16.00;;;12.37;;
5795;SDS011;2924;51.458;7.046;2023-06-10T03:55:21;16.63;;;11.83;;
5795;SDS011;2924;51.458;7.046;2023-06-10T03:57:48;14.50;;;11.90;;
5795;SDS011;2924;51.458;7.046;2023-06-10T04:00:14;17.47;;;12.63;;
5795;SDS011;2924;51.458;7.046;2023-06-10T04:02:41;12.53;;;11.23;;
5795;SDS011;2924;51.458;7.046;2023-06-10T04:05:16;15.33;;;11.97;;
5795;SDS011;2924;51.458;7.046;2023-06-10T04:07:45;16.70;;;12.63;;
5795;SDS011;2924;51.458;7.046;2023-06-10T04:10:13;16.13;;;11.67;;
5795;SDS011;2924;51.458;7.046;2023-06-10T04:12:39;16.67;;;11.93;;
5795;SDS011;2924;51.458;7.046;2023-06-10T04:15:05;13.03;;;11.67;;
5795;SDS011;2924;51.458;7.046;2023-06-10T04:17:31;15.30;;;11.37;;
5795;SDS011;2924;51.458;7.046;2023-06-10T04:19:57;12.43;;;11.13;;
5795;SDS011;2924;51.458;7.046;2023-06-10T04:22:23;12.77;;;11.33;;
5795;SDS011;2924;51.458;7.046;2023-06-10T04:24:49;14.30;;;10.80;;
5795;SDS011;2924;51.458;7.046;2023-06-10T04:27:14;10.53;;;9.47;;
5795;SDS011;2924;51.458;7.046;2023-06-10T04:29:40;14.93;;;11.83;;
5795;SDS011;2924;51.458;7.046;2023-06-10T04:32:06;21.53;;;10.97;;
5795;SDS011;2924;51.458;7.046;2023-06-10T04:34:35;11.47;;;10.33;;
5795;SDS011;2924;51.458;7.046;2023-06-10T04:37:01;13.70;;;10.43;;
5795;SDS011;2924;51.458;7.046;2023-06-10T04:39:26;10.50;;;9.40;;
5795;SDS011;2924;51.458;7.046;2023-06-10T04:41:52;10.67;;;9.43;;
5795;SDS011;2924;51.458;7.046;2023-06-10T04:44:18;13.37;;;10.53;;
5795;SDS011;2924;51.458;7.046;2023-06-10T04:46:43;13.73;;;10.43;;
5795;SDS011;2924;51.458;7.046;2023-06-10T04:49:10;11.63;;;9.80;;
5795;SDS011;2924;51.458;7.046;2023-06-10T04:51:36;13.53;;;10.67;;
5795;SDS011;2924;51.458;7.046;2023-06-10T04:54:02;12.83;;;10.33;;
5795;SDS011;2924;51.458;7.046;2023-06-10T04:56:28;13.47;;;8.53;;
5795;SDS011;2924;51.458;7.046;2023-06-10T04:58:55;10.70;;;8.90;;
5795;SDS011;2924;51.458;7.046;2023-06-10T05:01:21;11.17;;;9.80;;
5795;SDS011;2924;51.458;7.046;2023-06-10T05:03:47;12.93;;;10.13;;
5795;SDS011;2924;51.458;7.046;2023-06-10T05:06:13;13.33;;;10.33;;
5795;SDS011;2924;51.458;7.046;2023-06-10T05:08:38;15.07;;;9.97;;
5795;SDS011;2924;51.458;7.046;2023-06-10T05:11:04;11.40;;;9.13;;
5795;SDS011;2924;51.458;7.046;2023-06-10T05:13:29;14.30;;;9.20;;
5795;SDS011;2924;51.458;7.046;2023-06-10T05:15:55;12.00;;;9.97;;
5795;SDS011;2924;51.458;7.046;2023-06-10T05:18:20;9.80;;;8.80;;
5795;SDS011;2924;51.458;7.046;2023-06-10T05:20:46;19.77;;;8.70;;
5795;SDS011;2924;51.458;7.046;2023-06-10T05:23:11;16.60;;;9.30;;
5795;SDS011;2924;51.458;7.046;2023-06-10T05:25:37;10.70;;;7.50;;
5795;SDS011;2924;51.458;7.046;2023-06-10T05:28:03;10.93;;;8.43;;
5795;SDS011;2924;51.458;7.046;2023-06-10T05:30:28;11.60;;;6.73;;
5795;SDS011;2924;51.458;7.046;2023-06-10T05:32:54;10.70;;;7.70;;
5795;SDS011;2924;51.458;7.046;2023-06-10T05:35:21;14.47;;;7.50;;
5795;SDS011;2924;51.458;7.046;2023-06-10T05:37:46;8.27;;;6.80;;
5795;SDS011;2924;51.458;7.046;2023-06-10T05:40:12;13.97;;;8.00;;
5795;SDS011;2924;51.458;7.046;2023-06-10T05:42:38;7.83;;;7.03;;
5795;SDS011;2924;51.458;7.046;2023-06-10T05:45:03;10.97;;;7.00;;
5795;SDS011;2924;51.458;7.046;2023-06-10T05:47:31;8.70;;;7.03;;
5795;SDS011;2924;51.458;7.046;2023-06-10T05:49:56;12.90;;;7.70;;
5795;SDS011;2924;51.458;7.046;2023-06-10T05:52:22;12.53;;;7.33;;
5795;SDS011;2924;51.458;7.046;2023-06-10T05:54:48;7.53;;;6.37;;
5795;SDS011;2924;51.458;7.046;2023-06-10T05:57:14;15.83;;;6.83;;
5795;SDS011;2924;51.458;7.046;2023-06-10T05:59:40;7.10;;;6.30;;
5795;SDS011;2924;51.458;7.046;2023-06-10T06:02:06;15.47;;;6.60;;
5795;SDS011;2924;51.458;7.046;2023-06-10T06:04:31;11.33;;;6.40;;
5795;SDS011;2924;51.458;7.046;2023-06-10T06:06:57;10.90;;;6.53;;
5795;SDS011;2924;51.458;7.046;2023-06-10T06:09:23;20.30;;;7.53;;
5795;SDS011;2924;51.458;7.046;2023-06-10T06:11:48;10.67;;;6.93;;
5795;SDS011;2924;51.458;7.046;2023-06-10T06:14:14;7.87;;;5.93;;
5795;SDS011;2924;51.458;7.046;2023-06-10T06:16:39;8.70;;;6.70;;
5795;SDS011;2924;51.458;7.046;2023-06-10T06:19:05;7.17;;;6.13;;
5795;SDS011;2924;51.458;7.046;2023-06-10T06:21:31;7.03;;;6.03;;
5795;SDS011;2924;51.458;7.046;2023-06-10T06:23:56;7.50;;;6.30;;
5795;SDS011;2924;51.458;7.046;2023-06-10T06:26:23;12.07;;;6.40;;
5795;SDS011;2924;51.458;7.046;2023-06-10T06:28:48;8.60;;;5.90;;
5795;SDS011;2924;51.458;7.046;2023-06-10T06:31:14;8.60;;;5.80;;
5795;SDS011;2924;51.458;7.046;2023-06-10T06:33:39;9.23;;;6.07;;
5795;SDS011;2924;51.458;7.046;2023-06-10T06:36:05;10.93;;;6.63;;
5795;SDS011;2924;51.458;7.046;2023-06-10T06:38:30;7.33;;;5.27;;
5795;SDS011;2924;51.458;7.046;2023-06-10T06:40:56;7.93;;;5.57;;
5795;SDS011;2924;51.458;7.046;2023-06-10T06:43:27;13.63;;;5.70;;
5795;SDS011;2924;51.458;7.046;2023-06-10T06:45:53;10.53;;;5.47;;
5795;SDS011;2924;51.458;7.046;2023-06-10T06:48:19;7.50;;;5.40;;
5795;SDS011;2924;51.458;7.046;2023-06-10T06:50:44;5.60;;;5.00;;
5795;SDS011;2924;51.458;7.046;2023-06-10T06:53:10;7.53;;;5.27;;
5795;SDS011;2924;51.458;7.046;2023-06-10T06:55:35;6.63;;;5.93;;
5795;SDS011;2924;51.458;7.046;2023-06-10T06:58:01;6.27;;;5.30;;
5795;SDS011;2924;51.458;7.046;2023-06-10T07:00:28;7.87;;;5.60;;
5795;SDS011;2924;51.458;7.046;2023-06-10T07:02:54;5.73;;;5.10;;
5795;SDS011;2924;51.458;7.046;2023-06-10T07:05:22;8.27;;;5.10;;
5795;SDS011;2924;51.458;7.046;2023-06-10T07:07:48;13.87;;;5.17;;
5795;SDS011;2924;51.458;7.046;2023-06-10T07:10:19;8.53;;;5.53;;
5795;SDS011;2924;51.458;7.046;2023-06-10T07:12:46;10.83;;;5.90;;
5795;SDS011;2924;51.458;7.046;2023-06-10T07:15:13;7.20;;;5.70;;
5795;SDS011;2924;51.458;7.046;2023-06-10T07:17:38;5.72;;;4.90;;
5795;SDS011;2924;51.458;7.046;2023-06-10T07:20:04;5.80;;;4.53;;
5795;SDS011;2924;51.458;7.046;2023-06-10T07:22:30;7.97;;;5.22;;
5795;SDS011;2924;51.458;7.046;2023-06-10T07:24:56;6.60;;;5.05;;
5795;SDS011;2924;51.458;7.046;2023-06-10T07:27:22;8.90;;;4.85;;
5795;SDS011;2924;51.458;7.046;2023-06-10T07:29:47;7.18;;;4.75;;
5795;SDS011;2924;51.458;7.046;2023-06-10T07:32:13;7.00;;;4.93;;
5795;SDS011;2924;51.458;7.046;2023-06-10T07:34:39;13.83;;;5.70;;
5795;SDS011;2924;51.458;7.046;2023-06-10T07:37:04;11.75;;;5.65;;
5795;SDS011;2924;51.458;7.046;2023-06-10T07:39:30;12.13;;;5.93;;
5795;SDS011;2924;51.458;7.046;2023-06-10T07:41:56;5.97;;;4.10;;
5795;SDS011;2924;51.458;7.046;2023-06-10T07:44:22;5.25;;;4.75;;
5795;SDS011;2924;51.458;7.046;2023-06-10T07:46:48;7.70;;;5.15;;
5795;SDS011;2924;51.458;7.046;2023-06-10T07:49:13;9.80;;;5.05;;
5795;SDS011;2924;51.458;7.046;2023-06-10T07:51:39;12.60;;;5.60;;
5795;SDS011;2924;51.458;7.046;2023-06-10T07:54:05;9.20;;;4.60;;
5795;SDS011;2924;51.458;7.046;2023-06-10T07:56:30;9.13;;;5.05;;
5795;SDS011;2924;51.458;7.046;2023-06-10T07:58:56;17.75;;;5.43;;
5795;SDS011;2924;51.458;7.046;2023-06-10T08:01:22;7.97;;;4.85;;
5795;SDS011;2924;51.458;7.046;2023-06-10T08:03:49;19.42;;;5.32;;
5795;SDS011;2924;51.458;7.046;2023-06-10T08:06:14;8.88;;;5.03;;
5795;SDS011;2924;51.458;7.046;2023-06-10T08:08:42;5.18;;;4.72;;
5795;SDS011;2924;51.458;7.046;2023-06-10T08:11:08;7.32;;;4.90;;
5795;SDS011;2924;51.458;7.046;2023-06-10T08:13:37;7.25;;;4.53;;
5795;SDS011;2924;51.458;7.046;2023-06-10T08:16:04;7.80;;;4.93;;
5795;SDS011;2924;51.458;7.046;2023-06-10T08:18:30;5.38;;;4.85;;
5795;SDS011;2924;51.458;7.046;2023-06-10T08:20:55;8.30;;;4.78;;
5795;SDS011;2924;51.458;7.046;2023-06-10T08:23:21;6.38;;;4.03;;
5795;SDS011;2924;51.458;7.046;2023-06-10T08:25:47;5.85;;;4.70;;
5795;SDS011;2924;51.458;7.046;2023-06-10T08:28:13;10.65;;;4.55;;
5795;SDS011;2924;51.458;7.046;2023-06-10T08:30:38;8.13;;;4.53;;
5795;SDS011;2924;51.458;7.046;2023-06-10T08:33:04;8.52;;;4.70;;
5795;SDS011;2924;51.458;7.046;2023-06-10T08:35:29;6.22;;;4.57;;
5795;SDS011;2924;51.458;7.046;2023-06-10T08:37:55;10.15;;;4.47;;
5795;SDS011;2924;51.458;7.046;2023-06-10T08:40:20;8.65;;;4.35;;
5795;SDS011;2924;51.458;7.046;2023-06-10T08:42:53;5.78;;;4.50;;
5795;SDS011;2924;51.458;7.046;2023-06-10T08:45:29;6.70;;;4.90;;
5795;SDS011;2924;51.458;7.046;2023-06-10T08:48:00;7.53;;;4.40;;
5795;SDS011;2924;51.458;7.046;2023-06-10T08:50:29;7.72;;;4.50;;
5795;SDS011;2924;51.458;7.046;2023-06-10T08:52:57;6.78;;;5.57;;
5795;SDS011;2924;51.458;7.046;2023-06-10T08:55:26;4.88;;;4.38;;
5795;SDS011;2924;51.458;7.046;2023-06-10T08:57:55;8.90;;;4.68;;
5795;SDS011;2924;51.458;7.046;2023-06-10T09:00:21;3.80;;;3.45;;
5795;SDS011;2924;51.458;7.046;2023-06-10T09:02:47;6.50;;;5.00;;
5795;SDS011;2924;51.458;7.046;2023-06-10T09:05:13;5.70;;;4.22;;
5795;SDS011;2924;51.458;7.046;2023-06-10T09:07:40;7.40;;;4.60;;
5795;SDS011;2924;51.458;7.046;2023-06-10T09:10:06;10.65;;;4.43;;
5795;SDS011;2924;51.458;7.046;2023-06-10T09:12:32;4.45;;;4.05;;
5795;SDS011;2924;51.458;7.046;2023-06-10T09:14:59;11.52;;;4.60;;
5795;SDS011;2924;51.458;7.046;2023-06-10T09:17:26;16.17;;;4.85;;
5795;SDS011;2924;51.458;7.046;2023-06-10T09:19:52;7.72;;;4.30;;
5795;SDS011;2924;51.458;7.046;2023-06-10T09:22:20;5.75;;;4.22;;
5795;SDS011;2924;51.458;7.046;2023-06-10T09:24:51;9.77;;;5.13;;
5795;SDS011;2924;51.458;7.046;2023-06-10T09:27:26;5.70;;;5.07;;
5795;SDS011;2924;51.458;7.046;2023-06-10T09:29:56;5.35;;;4.85;;
5795;SDS011;2924;51.458;7.046;2023-06-10T09:32:22;14.30;;;4.70;;
5795;SDS011;2924;51.458;7.046;2023-06-10T09:34:49;5.22;;;4.07;;
5795;SDS011;2924;51.458;7.046;2023-06-10T09:37:22;5.72;;;4.68;;
5795;SDS011;2924;51.458;7.046;2023-06-10T09:40:04;8.43;;;4.53;;
5795;SDS011;2924;51.458;7.046;2023-06-10T09:42:32;7.75;;;4.53;;
5795;SDS011;2924;51.458;7.046;2023-06-10T09:45:02;9.57;;;4.90;;
5795;SDS011;2924;51.458;7.046;2023-06-10T09:47:28;5.63;;;4.97;;
5795;SDS011;2924;51.458;7.046;2023-06-10T09:49:54;6.40;;;3.85;;
5795;SDS011;2924;51.458;7.046;2023-06-10T09:52:26;7.28;;;4.53;;
5795;SDS011;2924;51.458;7.046;2023-06-10T09:54:53;4.28;;;3.88;;
5795;SDS011;2924;51.458;7.046;2023-06-10T09:57:23;4.13;;;3.83;;
5795;SDS011;2924;51.458;7.046;2023-06-10T09:59:52;4.28;;;3.88;;
5795;SDS011;2924;51.458;7.046;2023-06-10T10:02:18;7.78;;;4.85;;
5795;SDS011;2924;51.458;7.046;2023-06-10T10:04:44;10.25;;;4.65;;
5795;SDS011;2924;51.458;7.046;2023-06-10T10:07:10;5.38;;;4.85;;
5795;SDS011;2924;51.458;7.046;2023-06-10T10:09:39;6.15;;;4.20;;
5795;SDS011;2924;51.458;7.046;2023-06-10T10:12:07;6.72;;;4.53;;
5795;SDS011;2924;51.458;7.046;2023-06-10T10:14:36;8.50;;;4.88;;
5795;SDS011;2924;51.458;7.046;2023-06-10T10:17:10;6.55;;;4.57;;
5795;SDS011;2924;51.458;7.046;2023-06-10T10:19:50;6.03;;;4.95;;
5795;SDS011;2924;51.458;7.046;2023-06-10T10:22:25;7.80;;;4.70;;
5795;SDS011;2924;51.458;7.046;2023-06-10T10:24:57;5.22;;;4.72;;
5795;SDS011;2924;51.458;7.046;2023-06-10T10:27:27;8.50;;;4.13;;
5795;SDS011;2924;51.458;7.046;2023-06-10T10:30:20;4.75;;;4.35;;
5795;SDS011;2924;51.458;7.046;2023-06-10T10:35:48;11.82;;;4.40;;
5795;SDS011;2924;51.458;7.046;2023-06-10T10:38:14;8.57;;;4.18;;
5795;SDS011;2924;51.458;7.046;2023-06-10T10:40:40;5.78;;;4.97;;
5795;SDS011;2924;51.458;7.046;2023-06-10T10:43:07;4.82;;;4.53;;
5795;SDS011;2924;51.458;7.046;2023-06-10T10:45:34;6.05;;;4.40;;
5795;SDS011;2924;51.458;7.046;2023-06-10T10:48:03;5.55;;;4.80;;
5795;SDS011;2924;51.458;7.046;2023-06-10T10:50:33;5.45;;;4.45;;
5795;SDS011;2924;51.458;7.046;2023-06-10T10:53:00;4.88;;;4.00;;
5795;SDS011;2924;51.458;7.046;2023-06-10T10:55:27;5.95;;;5.35;;
5795;SDS011;2924;51.458;7.046;2023-06-10T10:57:54;9.63;;;4.53;;
5795;SDS011;2924;51.458;7.046;2023-06-10T11:00:45;5.43;;;4.93;;
5795;SDS011;2924;51.458;7.046;2023-06-10T11:03:16;5.57;;;4.63;;
5795;SDS011;2924;51.458;7.046;2023-06-10T11:05:43;5.85;;;4.25;;
5795;SDS011;2924;51.458;7.046;2023-06-10T11:08:45;7.70;;;4.25;;
5795;SDS011;2924;51.458;7.046;2023-06-10T11:11:20;11.05;;;5.82;;
5795;SDS011;2924;51.458;7.046;2023-06-10T11:16:53;5.05;;;4.65;;
5795;SDS011;2924;51.458;7.046;2023-06-10T11:19:31;8.00;;;4.90;;
5795;SDS011;2924;51.458;7.046;2023-06-10T11:22:02;9.57;;;5.30;;
5795;SDS011;2924;51.458;7.046;2023-06-10T11:24:30;5.28;;;4.32;;
5795;SDS011;2924;51.458;7.046;2023-06-10T11:27:41;5.43;;;4.63;;
5795;SDS011;2924;51.458;7.046;2023-06-10T11:29:55;5.10;;;4.63;;
5795;SDS011;2924;51.458;7.046;2023-06-10T11:32:23;6.18;;;4.78;;
5795;SDS011;2924;51.458;7.046;2023-06-10T11:34:53;5.25;;;3.95;;
5795;SDS011;2924;51.458;7.046;2023-06-10T11:37:19;6.88;;;4.85;;
5795;SDS011;2924;51.458;7.046;2023-06-10T11:39:46;6.28;;;4.45;;
5795;SDS011;2924;51.458;7.046;2023-06-10T11:42:12;7.45;;;4.15;;
5795;SDS011;2924;51.458;7.046;2023-06-10T11:44:38;7.75;;;4.28;;
5795;SDS011;2924;51.458;7.046;2023-06-10T11:47:03;7.97;;;4.53;;
5795;SDS011;2924;51.458;7.046;2023-06-10T11:49:29;6.32;;;5.28;;
5795;SDS011;2924;51.458;7.046;2023-06-10T11:51:55;5.07;;;4.00;;
5795;SDS011;2924;51.458;7.046;2023-06-10T11:54:21;7.90;;;5.00;;
5795;SDS011;2924;51.458;7.046;2023-06-10T11:56:47;10.18;;;4.95;;
5795;SDS011;2924;51.458;7.046;2023-06-10T11:59:13;9.57;;;4.35;;
5795;SDS011;2924;51.458;7.046;2023-06-10T12:01:42;4.82;;;4.50;;
5795;SDS011;2924;51.458;7.046;2023-06-10T12:04:10;4.80;;;4.40;;
5795;SDS011;2924;51.458;7.046;2023-06-10T12:06:50;9.07;;;4.55;;
5795;SDS011;2924;51.458;7.046;2023-06-10T12:09:20;6.75;;;4.88;;
5795;SDS011;2924;51.458;7.046;2023-06-10T12:12:00;6.30;;;5.68;;
5795;SDS011;2924;51.458;7.046;2023-06-10T12:17:42;6.00;;;4.43;;
5795;SDS011;2924;51.458;7.046;2023-06-10T12:20:08;7.15;;;5.03;;
5795;SDS011;2924;51.458;7.046;2023-06-10T12:22:49;4.80;;;4.40;;
5795;SDS011;2924;51.458;7.046;2023-06-10T12:25:14;5.18;;;4.68;;
5795;SDS011;2924;51.458;7.046;2023-06-10T12:27:40;4.32;;;4.03;;
5795;SDS011;2924;51.458;7.046;2023-06-10T12:30:19;7.45;;;5.18;;
5795;SDS011;2924;51.458;7.046;2023-06-10T12:32:46;6.05;;;5.45;;
5795;SDS011;2924;51.458;7.046;2023-06-10T12:35:13;8.63;;;5.60;;
5795;SDS011;2924;51.458;7.046;2023-06-10T12:37:42;7.95;;;5.05;;
5795;SDS011;2924;51.458;7.046;2023-06-10T12:40:25;6.80;;;5.32;;
5795;SDS011;2924;51.458;7.046;2023-06-10T12:43:02;6.75;;;4.68;;
5795;SDS011;2924;51.458;7.046;2023-06-10T12:45:28;9.80;;;5.63;;
5795;SDS011;2924;51.458;7.046;2023-06-10T12:48:05;6.70;;;5.07;;
5795;SDS011;2924;51.458;7.046;2023-06-10T12:50:42;7.68;;;4.78;;
5795;SDS011;2924;51.458;7.046;2023-06-10T12:53:09;7.30;;;5.03;;
5795;SDS011;2924;51.458;7.046;2023-06-10T12:55:39;11.70;;;5.57;;
5795;SDS011;2924;51.458;7.046;2023-06-10T12:58:04;8.63;;;4.75;;
5795;SDS011;2924;51.458;7.046;2023-06-10T13:00:30;6.20;;;4.82;;
5795;SDS011;2924;51.458;7.046;2023-06-10T13:02:56;5.15;;;4.70;;
5795;SDS011;2924;51.458;7.046;2023-06-10T13:05:23;4.85;;;4.45;;
5795;SDS011;2924;51.458;7.046;2023-06-10T13:07:48;5.18;;;4.68;;
5795;SDS011;2924;51.458;7.046;2023-06-10T13:10:15;5.55;;;5.05;;
5795;SDS011;2924;51.458;7.046;2023-06-10T13:12:44;16.33;;;6.63;;
5795;SDS011;2924;51.458;7.046;2023-06-10T13:15:11;8.68;;;5.70;;
5795;SDS011;2924;51.458;7.046;2023-06-10T13:17:37;9.23;;;5.28;;
5795;SDS011;2924;51.458;7.046;2023-06-10T13:20:04;10.18;;;4.80;;
5795;SDS011;2924;51.458;7.046;2023-06-10T13:22:31;4.68;;;4.38;;
5795;SDS011;2924;51.458;7.046;2023-06-10T13:25:01;7.50;;;4.95;;
5795;SDS011;2924;51.458;7.046;2023-06-10T13:27:31;5.55;;;5.05;;
5795;SDS011;2924;51.458;7.046;2023-06-10T13:29:57;6.28;;;5.70;;
5795;SDS011;2924;51.458;7.046;2023-06-10T13:32:23;8.43;;;5.18;;
5795;SDS011;2924;51.458;7.046;2023-06-10T13:34:48;7.43;;;4.75;;
5795;SDS011;2924;51.458;7.046;2023-06-10T13:37:14;6.07;;;5.35;;
5795;SDS011;2924;51.458;7.046;2023-06-10T13:39:43;5.85;;;5.22;;
5795;SDS011;2924;51.458;7.046;2023-06-10T13:42:08;6.70;;;4.70;;
5795;SDS011;2924;51.458;7.046;2023-06-10T13:44:34;10.77;;;5.20;;
5795;SDS011;2924;51.458;7.046;2023-06-10T13:47:01;6.35;;;4.90;;
5795;SDS011;2924;51.458;7.046;2023-06-10T13:49:28;5.35;;;4.85;;
5795;SDS011;2924;51.458;7.046;2023-06-10T13:51:54;8.25;;;5.20;;
5795;SDS011;2924;51.458;7.046;2023-06-10T13:54:19;7.05;;;4.75;;
5795;SDS011;2924;51.458;7.046;2023-06-10T13:56:46;6.53;;;4.95;;
5795;SDS011;2924;51.458;7.046;2023-06-10T13:59:11;6.95;;;5.00;;
5795;SDS011;2924;51.458;7.046;2023-06-10T14:01:37;10.80;;;5.30;;
5795;SDS011;2924;51.458;7.046;2023-06-10T14:04:03;10.40;;;4.85;;
5795;SDS011;2924;51.458;7.046;2023-06-10T14:06:29;4.75;;;4.35;;
5795;SDS011;2924;51.458;7.046;2023-06-10T14:08:55;6.53;;;5.88;;
5795;SDS011;2924;51.458;7.046;2023-06-10T14:11:21;8.02;;;5.45;;
5795;SDS011;2924;51.458;7.046;2023-06-10T14:13:46;9.10;;;5.53;;
5795;SDS011;2924;51.458;7.046;2023-06-10T14:16:12;5.55;;;4.57;;
5795;SDS011;2924;51.458;7.046;2023-06-10T14:18:38;5.90;;;5.30;;
5795;SDS011;2924;51.458;7.046;2023-06-10T14:21:03;6.25;;;4.88;;
5795;SDS011;2924;51.458;7.046;2023-06-10T14:23:29;6.15;;;5.28;;
5795;SDS011;2924;51.458;7.046;2023-06-10T14:25:55;13.98;;;4.95;;
5795;SDS011;2924;51.458;7.046;2023-06-10T14:28:20;10.82;;;5.63;;
5795;SDS011;2924;51.458;7.046;2023-06-10T14:30:46;8.77;;;5.55;;
5795;SDS011;2924;51.458;7.046;2023-06-10T14:33:11;5.80;;;5.25;;
5795;SDS011;2924;51.458;7.046;2023-06-10T14:35:37;7.63;;;5.90;;
5795;SDS011;2924;51.458;7.046;2023-06-10T14:38:02;5.65;;;4.93;;
5795;SDS011;2924;51.458;7.046;2023-06-10T14:42:57;6.88;;;6.15;;
5795;SDS011;2924;51.458;7.046;2023-06-10T14:45:23;13.77;;;5.57;;
5795;SDS011;2924;51.458;7.046;2023-06-10T14:47:50;5.28;;;4.88;;
5795;SDS011;2924;51.458;7.046;2023-06-10T14:50:16;8.43;;;5.22;;
5795;SDS011;2924;51.458;7.046;2023-06-10T14:52:41;5.75;;;4.72;;
5795;SDS011;2924;51.458;7.046;2023-06-10T14:55:07;12.38;;;5.70;;
5795;SDS011;2924;51.458;7.046;2023-06-10T14:57:33;6.63;;;5.03;;
5795;SDS011;2924;51.458;7.046;2023-06-10T14:59:58;9.95;;;5.57;;
5795;SDS011;2924;51.458;7.046;2023-06-10T15:02:24;4.93;;;4.53;;
5795;SDS011;2924;51.458;7.046;2023-06-10T15:04:50;5.70;;;5.00;;
5795;SDS011;2924;51.458;7.046;2023-06-10T15:07:16;5.60;;;5.07;;
5795;SDS011;2924;51.458;7.046;2023-06-10T15:09:42;8.07;;;5.53;;
5795;SDS011;2924;51.458;7.046;2023-06-10T15:12:08;6.53;;;5.30;;
5795;SDS011;2924;51.458;7.046;2023-06-10T15:14:34;5.32;;;4.82;;
5795;SDS011;2924;51.458;7.046;2023-06-10T15:17:00;5.30;;;4.80;;
5795;SDS011;2924;51.458;7.046;2023-06-10T15:21:56;5.63;;;4.80;;
5795;SDS011;2924;51.458;7.046;2023-06-10T15:24:21;7.00;;;4.90;;
5795;SDS011;2924;51.458;7.046;2023-06-10T15:26:47;5.53;;;4.85;;
5795;SDS011;2924;51.458;7.046;2023-06-10T15:29:13;5.70;;;5.20;;